sensor_id;sensor_type;location;lat;lon;timestamp;P1;durP1;ratioP1;P2;durP2;ratioP2
76063;SDS011;64762;52.006;8.424;2023-11-18T00:00:27;52.40;;;16.13;;
76063;SDS011;64762;52.006;8.424;2023-11-18T00:02:52;55.45;;;16.98;;
76063;SDS011;64762;52.006;8.424;2023-11-18T00:05:18;62.63;;;18.20;;
76063;SDS011;64762;52.006;8.424;2023-11-18T00:07:43;56.17;;;17.60;;
76063;SDS011;64762;52.006;8.424;2023-11-18T00:10:08;52.42;;;16.30;;
76063;SDS011;64762;52.006;8.424;2023-11-18T00:12:34;49.92;;;15.30;;
76063;SDS011;64762;52.006;8.424;2023-11-18T00:15:01;56.00;;;16.50;;
76063;SDS011;64762;52.006;8.424;2023-11-18T00:17:29;51.20;;;15.27;;
76063;SDS011;64762;52.006;8.424;2023-11-18T00:19:55;52.67;;;15.88;;
76063;SDS011;64762;52.006;8.424;2023-11-18T00:22:20;44.43;;;15.10;;
76063;SDS011;64762;52.006;8.424;2023-11-18T00:24:45;50.60;;;15.93;;
76063;SDS011;64762;52.006;8.424;2023-11-18T00:27:11;61.27;;;16.37;;
76063;SDS011;64762;52.006;8.424;2023-11-18T00:29:36;50.73;;;15.60;;
76063;SDS011;64762;52.006;8.424;2023-11-18T00:32:03;50.53;;;17.27;;
76063;SDS011;64762;52.006;8.424;2023-11-18T00:34:29;53.50;;;17.40;;
76063;SDS011;64762;52.006;8.424;2023-11-18T00:36:55;49.13;;;15.57;;
76063;SDS011;64762;52.006;8.424;2023-11-18T00:39:22;51.90;;;15.23;;
76063;SDS011;64762;52.006;8.424;2023-11-18T00:41:48;52.30;;;16.50;;
76063;SDS011;64762;52.006;8.424;2023-11-18T00:44:13;55.22;;;18.20;;
76063;SDS011;64762;52.006;8.424;2023-11-18T00:46:39;58.17;;;18.17;;
76063;SDS011;64762;52.006;8.424;2023-11-18T00:49:04;49.80;;;15.87;;
76063;SDS011;64762;52.006;8.424;2023-11-18T00:51:30;59.20;;;17.13;;
76063;SDS011;64762;52.006;8.424;2023-11-18T00:53:55;69.73;;;18.80;;
76063;SDS011;64762;52.006;8.424;2023-11-18T00:56:20;56.50;;;17.63;;
76063;SDS011;64762;52.006;8.424;2023-11-18T00:58:47;57.67;;;18.15;;
76063;SDS011;64762;52.006;8.424;2023-11-18T01:01:15;70.40;;;19.38;;
76063;SDS011;64762;52.006;8.424;2023-11-18T01:03:42;71.78;;;20.33;;
76063;SDS011;64762;52.006;8.424;2023-11-18T01:06:11;69.80;;;18.58;;
76063;SDS011;64762;52.006;8.424;2023-11-18T01:08:36;77.28;;;20.40;;
76063;SDS011;64762;52.006;8.424;2023-11-18T01:11:01;70.57;;;19.57;;
76063;SDS011;64762;52.006;8.424;2023-11-18T01:13:29;71.78;;;20.50;;
76063;SDS011;64762;52.006;8.424;2023-11-18T01:15:54;82.00;;;22.20;;
76063;SDS011;64762;52.006;8.424;2023-11-18T01:18:20;68.95;;;20.02;;
76063;SDS011;64762;52.006;8.424;2023-11-18T01:20:45;76.95;;;20.05;;
76063;SDS011;64762;52.006;8.424;2023-11-18T01:23:12;76.32;;;19.45;;
76063;SDS011;64762;52.006;8.424;2023-11-18T01:25:37;73.25;;;19.17;;
76063;SDS011;64762;52.006;8.424;2023-11-18T01:28:02;65.03;;;19.07;;
76063;SDS011;64762;52.006;8.424;2023-11-18T01:30:28;70.35;;;19.10;;
76063;SDS011;64762;52.006;8.424;2023-11-18T01:32:54;73.90;;;20.03;;
76063;SDS011;64762;52.006;8.424;2023-11-18T01:35:19;75.53;;;21.15;;
76063;SDS011;64762;52.006;8.424;2023-11-18T01:37:45;71.40;;;20.10;;
76063;SDS011;64762;52.006;8.424;2023-11-18T01:40:10;80.68;;;20.92;;
76063;SDS011;64762;52.006;8.424;2023-11-18T01:45:09;80.38;;;21.98;;
76063;SDS011;64762;52.006;8.424;2023-11-18T01:47:36;86.53;;;20.95;;
76063;SDS011;64762;52.006;8.424;2023-11-18T01:50:02;86.63;;;21.57;;
76063;SDS011;64762;52.006;8.424;2023-11-18T01:52:30;84.03;;;22.38;;
76063;SDS011;64762;52.006;8.424;2023-11-18T01:54:56;80.00;;;22.02;;
76063;SDS011;64762;52.006;8.424;2023-11-18T01:57:21;78.80;;;21.02;;
76063;SDS011;64762;52.006;8.424;2023-11-18T01:59:46;77.00;;;20.87;;
76063;SDS011;64762;52.006;8.424;2023-11-18T02:02:12;62.57;;;18.60;;
76063;SDS011;64762;52.006;8.424;2023-11-18T02:04:38;71.95;;;18.67;;
76063;SDS011;64762;52.006;8.424;2023-11-18T02:07:04;51.38;;;17.42;;
76063;SDS011;64762;52.006;8.424;2023-11-18T02:12:02;56.65;;;17.58;;
76063;SDS011;64762;52.006;8.424;2023-11-18T02:14:38;61.15;;;17.27;;
76063;SDS011;64762;52.006;8.424;2023-11-18T02:17:04;58.80;;;17.05;;
76063;SDS011;64762;52.006;8.424;2023-11-18T02:19:30;64.57;;;18.23;;
76063;SDS011;64762;52.006;8.424;2023-11-18T02:21:55;72.17;;;19.77;;
76063;SDS011;64762;52.006;8.424;2023-11-18T02:24:31;65.90;;;19.50;;
76063;SDS011;64762;52.006;8.424;2023-11-18T02:27:01;74.85;;;19.83;;
76063;SDS011;64762;52.006;8.424;2023-11-18T02:29:28;62.45;;;17.00;;
76063;SDS011;64762;52.006;8.424;2023-11-18T02:31:57;67.43;;;19.10;;
76063;SDS011;64762;52.006;8.424;2023-11-18T02:36:53;69.25;;;18.73;;
76063;SDS011;64762;52.006;8.424;2023-11-18T02:39:22;59.72;;;17.00;;
76063;SDS011;64762;52.006;8.424;2023-11-18T02:41:53;53.50;;;16.42;;
76063;SDS011;64762;52.006;8.424;2023-11-18T02:44:21;53.45;;;16.20;;
76063;SDS011;64762;52.006;8.424;2023-11-18T02:46:48;45.03;;;15.27;;
76063;SDS011;64762;52.006;8.424;2023-11-18T02:49:13;48.42;;;16.05;;
76063;SDS011;64762;52.006;8.424;2023-11-18T02:51:38;44.60;;;15.13;;
76063;SDS011;64762;52.006;8.424;2023-11-18T02:54:07;55.33;;;17.13;;
76063;SDS011;64762;52.006;8.424;2023-11-18T02:56:35;51.47;;;17.05;;
76063;SDS011;64762;52.006;8.424;2023-11-18T02:59:01;41.70;;;14.10;;
76063;SDS011;64762;52.006;8.424;2023-11-18T03:01:30;40.50;;;14.25;;
76063;SDS011;64762;52.006;8.424;2023-11-18T03:03:55;47.00;;;15.57;;
76063;SDS011;64762;52.006;8.424;2023-11-18T03:06:20;44.13;;;14.55;;
76063;SDS011;64762;52.006;8.424;2023-11-18T03:08:46;38.57;;;13.77;;
76063;SDS011;64762;52.006;8.424;2023-11-18T03:11:11;48.37;;;16.87;;
76063;SDS011;64762;52.006;8.424;2023-11-18T03:13:37;42.10;;;14.90;;
76063;SDS011;64762;52.006;8.424;2023-11-18T03:16:06;44.47;;;15.98;;
76063;SDS011;64762;52.006;8.424;2023-11-18T03:18:32;48.78;;;15.70;;
76063;SDS011;64762;52.006;8.424;2023-11-18T03:20:57;46.63;;;16.13;;
76063;SDS011;64762;52.006;8.424;2023-11-18T03:23:22;42.23;;;16.07;;
76063;SDS011;64762;52.006;8.424;2023-11-18T03:25:48;49.80;;;14.63;;
76063;SDS011;64762;52.006;8.424;2023-11-18T03:28:13;38.03;;;14.23;;
76063;SDS011;64762;52.006;8.424;2023-11-18T03:30:39;37.08;;;14.18;;
76063;SDS011;64762;52.006;8.424;2023-11-18T03:33:04;38.07;;;14.23;;
76063;SDS011;64762;52.006;8.424;2023-11-18T03:35:30;39.30;;;14.17;;
76063;SDS011;64762;52.006;8.424;2023-11-18T03:37:56;41.40;;;14.07;;
76063;SDS011;64762;52.006;8.424;2023-11-18T03:40:21;60.97;;;15.23;;
76063;SDS011;64762;52.006;8.424;2023-11-18T03:42:46;33.10;;;12.87;;
76063;SDS011;64762;52.006;8.424;2023-11-18T03:45:12;33.03;;;12.67;;
76063;SDS011;64762;52.006;8.424;2023-11-18T03:47:40;35.88;;;12.45;;
76063;SDS011;64762;52.006;8.424;2023-11-18T03:50:05;38.67;;;12.93;;
76063;SDS011;64762;52.006;8.424;2023-11-18T03:52:33;32.33;;;12.50;;
76063;SDS011;64762;52.006;8.424;2023-11-18T03:54:59;39.65;;;11.85;;
76063;SDS011;64762;52.006;8.424;2023-11-18T03:57:24;34.90;;;15.13;;
76063;SDS011;64762;52.006;8.424;2023-11-18T03:59:50;34.33;;;12.90;;
76063;SDS011;64762;52.006;8.424;2023-11-18T04:02:15;33.63;;;12.27;;
76063;SDS011;64762;52.006;8.424;2023-11-18T04:04:40;38.07;;;13.77;;
76063;SDS011;64762;52.006;8.424;2023-11-18T04:07:06;37.63;;;13.27;;
76063;SDS011;64762;52.006;8.424;2023-11-18T04:09:31;29.95;;;12.15;;
76063;SDS011;64762;52.006;8.424;2023-11-18T04:11:57;34.58;;;12.45;;
76063;SDS011;64762;52.006;8.424;2023-11-18T04:14:23;36.33;;;13.07;;
76063;SDS011;64762;52.006;8.424;2023-11-18T04:16:48;32.70;;;12.50;;
76063;SDS011;64762;52.006;8.424;2023-11-18T04:19:14;36.55;;;13.23;;
76063;SDS011;64762;52.006;8.424;2023-11-18T04:21:40;34.55;;;14.25;;
76063;SDS011;64762;52.006;8.424;2023-11-18T04:24:05;35.17;;;14.13;;
76063;SDS011;64762;52.006;8.424;2023-11-18T04:26:31;33.13;;;12.57;;
76063;SDS011;64762;52.006;8.424;2023-11-18T04:28:57;33.35;;;13.60;;
76063;SDS011;64762;52.006;8.424;2023-11-18T04:31:22;36.75;;;12.93;;
76063;SDS011;64762;52.006;8.424;2023-11-18T04:33:48;38.42;;;13.90;;
76063;SDS011;64762;52.006;8.424;2023-11-18T04:36:13;31.40;;;14.50;;
76063;SDS011;64762;52.006;8.424;2023-11-18T04:38:41;32.30;;;12.13;;
76063;SDS011;64762;52.006;8.424;2023-11-18T04:41:06;35.50;;;12.82;;
76063;SDS011;64762;52.006;8.424;2023-11-18T04:43:31;34.07;;;13.67;;
76063;SDS011;64762;52.006;8.424;2023-11-18T04:45:57;34.28;;;12.65;;
76063;SDS011;64762;52.006;8.424;2023-11-18T04:48:22;31.73;;;13.30;;
76063;SDS011;64762;52.006;8.424;2023-11-18T04:50:47;36.57;;;12.97;;
76063;SDS011;64762;52.006;8.424;2023-11-18T04:53:13;34.00;;;12.50;;
76063;SDS011;64762;52.006;8.424;2023-11-18T04:55:38;30.83;;;12.20;;
76063;SDS011;64762;52.006;8.424;2023-11-18T04:58:04;35.63;;;11.63;;
76063;SDS011;64762;52.006;8.424;2023-11-18T05:00:34;34.03;;;12.68;;
76063;SDS011;64762;52.006;8.424;2023-11-18T05:03:06;29.05;;;11.68;;
76063;SDS011;64762;52.006;8.424;2023-11-18T05:05:34;31.77;;;11.52;;
76063;SDS011;64762;52.006;8.424;2023-11-18T05:08:03;32.70;;;11.48;;
76063;SDS011;64762;52.006;8.424;2023-11-18T05:10:31;35.70;;;11.90;;
76063;SDS011;64762;52.006;8.424;2023-11-18T05:12:56;34.45;;;12.40;;
76063;SDS011;64762;52.006;8.424;2023-11-18T05:15:22;38.03;;;11.57;;
76063;SDS011;64762;52.006;8.424;2023-11-18T05:17:50;31.90;;;11.77;;
76063;SDS011;64762;52.006;8.424;2023-11-18T05:20:16;30.55;;;12.07;;
76063;SDS011;64762;52.006;8.424;2023-11-18T05:22:42;42.45;;;12.93;;
76063;SDS011;64762;52.006;8.424;2023-11-18T05:25:08;26.15;;;11.23;;
76063;SDS011;64762;52.006;8.424;2023-11-18T05:27:34;29.20;;;10.05;;
76063;SDS011;64762;52.006;8.424;2023-11-18T05:30:00;29.87;;;11.43;;
76063;SDS011;64762;52.006;8.424;2023-11-18T05:32:28;33.40;;;11.93;;
76063;SDS011;64762;52.006;8.424;2023-11-18T05:34:54;29.83;;;11.23;;
76063;SDS011;64762;52.006;8.424;2023-11-18T05:37:22;24.35;;;9.45;;
76063;SDS011;64762;52.006;8.424;2023-11-18T05:39:47;35.33;;;13.20;;
76063;SDS011;64762;52.006;8.424;2023-11-18T05:42:18;35.60;;;12.50;;
76063;SDS011;64762;52.006;8.424;2023-11-18T05:44:44;31.83;;;11.32;;
76063;SDS011;64762;52.006;8.424;2023-11-18T05:47:09;31.97;;;10.87;;
76063;SDS011;64762;52.006;8.424;2023-11-18T05:49:37;33.80;;;11.65;;
76063;SDS011;64762;52.006;8.424;2023-11-18T05:52:03;35.17;;;11.43;;
76063;SDS011;64762;52.006;8.424;2023-11-18T05:54:28;34.10;;;11.55;;
76063;SDS011;64762;52.006;8.424;2023-11-18T05:56:54;28.37;;;11.97;;
76063;SDS011;64762;52.006;8.424;2023-11-18T05:59:19;31.37;;;10.63;;
76063;SDS011;64762;52.006;8.424;2023-11-18T06:01:45;26.25;;;11.35;;
76063;SDS011;64762;52.006;8.424;2023-11-18T06:04:12;31.25;;;12.10;;
76063;SDS011;64762;52.006;8.424;2023-11-18T06:06:37;28.10;;;10.00;;
76063;SDS011;64762;52.006;8.424;2023-11-18T06:09:03;37.20;;;10.25;;
76063;SDS011;64762;52.006;8.424;2023-11-18T06:11:34;27.60;;;10.48;;
76063;SDS011;64762;52.006;8.424;2023-11-18T06:14:00;36.05;;;11.57;;
76063;SDS011;64762;52.006;8.424;2023-11-18T06:16:26;33.90;;;11.65;;
76063;SDS011;64762;52.006;8.424;2023-11-18T06:18:54;36.17;;;11.90;;
76063;SDS011;64762;52.006;8.424;2023-11-18T06:21:21;32.35;;;11.43;;
76063;SDS011;64762;52.006;8.424;2023-11-18T06:23:53;31.83;;;10.55;;
76063;SDS011;64762;52.006;8.424;2023-11-18T06:26:19;31.67;;;11.07;;
76063;SDS011;64762;52.006;8.424;2023-11-18T06:28:45;34.10;;;12.30;;
76063;SDS011;64762;52.006;8.424;2023-11-18T06:31:12;26.88;;;10.75;;
76063;SDS011;64762;52.006;8.424;2023-11-18T06:33:39;25.42;;;9.38;;
76063;SDS011;64762;52.006;8.424;2023-11-18T06:36:08;30.55;;;11.00;;
76063;SDS011;64762;52.006;8.424;2023-11-18T06:38:36;30.15;;;10.40;;
76063;SDS011;64762;52.006;8.424;2023-11-18T06:41:01;32.55;;;10.38;;
76063;SDS011;64762;52.006;8.424;2023-11-18T06:43:29;23.73;;;9.90;;
76063;SDS011;64762;52.006;8.424;2023-11-18T06:46:06;31.23;;;10.82;;
76063;SDS011;64762;52.006;8.424;2023-11-18T06:48:35;26.92;;;9.82;;
76063;SDS011;64762;52.006;8.424;2023-11-18T06:51:00;27.10;;;9.60;;
76063;SDS011;64762;52.006;8.424;2023-11-18T06:53:27;29.75;;;11.00;;
76063;SDS011;64762;52.006;8.424;2023-11-18T06:55:52;31.02;;;11.40;;
76063;SDS011;64762;52.006;8.424;2023-11-18T06:58:17;26.13;;;8.90;;
76063;SDS011;64762;52.006;8.424;2023-11-18T07:00:43;35.27;;;11.30;;
76063;SDS011;64762;52.006;8.424;2023-11-18T07:03:08;25.60;;;10.83;;
76063;SDS011;64762;52.006;8.424;2023-11-18T07:05:33;23.37;;;8.93;;
76063;SDS011;64762;52.006;8.424;2023-11-18T07:07:59;29.25;;;10.88;;
76063;SDS011;64762;52.006;8.424;2023-11-18T07:10:24;33.10;;;9.80;;
76063;SDS011;64762;52.006;8.424;2023-11-18T07:12:50;24.40;;;10.35;;
76063;SDS011;64762;52.006;8.424;2023-11-18T07:15:15;27.10;;;10.63;;
76063;SDS011;64762;52.006;8.424;2023-11-18T07:17:41;27.50;;;10.60;;
76063;SDS011;64762;52.006;8.424;2023-11-18T07:20:07;26.27;;;10.00;;
76063;SDS011;64762;52.006;8.424;2023-11-18T07:22:36;24.45;;;10.40;;
76063;SDS011;64762;52.006;8.424;2023-11-18T07:25:01;27.43;;;11.13;;
76063;SDS011;64762;52.006;8.424;2023-11-18T07:27:27;22.23;;;10.25;;
76063;SDS011;64762;52.006;8.424;2023-11-18T07:29:53;26.60;;;10.93;;
76063;SDS011;64762;52.006;8.424;2023-11-18T07:32:18;21.20;;;9.30;;
76063;SDS011;64762;52.006;8.424;2023-11-18T07:34:44;25.42;;;10.75;;
76063;SDS011;64762;52.006;8.424;2023-11-18T07:37:09;22.63;;;9.27;;
76063;SDS011;64762;52.006;8.424;2023-11-18T07:39:36;22.40;;;9.55;;
76063;SDS011;64762;52.006;8.424;2023-11-18T07:42:13;21.83;;;8.85;;
76063;SDS011;64762;52.006;8.424;2023-11-18T07:44:39;21.33;;;8.77;;
76063;SDS011;64762;52.006;8.424;2023-11-18T07:47:05;23.10;;;8.60;;
76063;SDS011;64762;52.006;8.424;2023-11-18T07:49:30;23.77;;;8.70;;
76063;SDS011;64762;52.006;8.424;2023-11-18T07:51:56;23.08;;;9.35;;
76063;SDS011;64762;52.006;8.424;2023-11-18T07:54:22;23.23;;;9.45;;
76063;SDS011;64762;52.006;8.424;2023-11-18T07:56:48;23.27;;;8.85;;
76063;SDS011;64762;52.006;8.424;2023-11-18T07:59:14;20.23;;;8.80;;
76063;SDS011;64762;52.006;8.424;2023-11-18T08:01:41;24.08;;;9.65;;
76063;SDS011;64762;52.006;8.424;2023-11-18T08:04:09;21.23;;;8.93;;
76063;SDS011;64762;52.006;8.424;2023-11-18T08:06:34;20.70;;;8.55;;
76063;SDS011;64762;52.006;8.424;2023-11-18T08:09:00;19.50;;;8.27;;
76063;SDS011;64762;52.006;8.424;2023-11-18T08:11:25;19.23;;;9.10;;
76063;SDS011;64762;52.006;8.424;2023-11-18T08:13:50;20.80;;;8.00;;
76063;SDS011;64762;52.006;8.424;2023-11-18T08:16:16;23.25;;;10.02;;
76063;SDS011;64762;52.006;8.424;2023-11-18T08:18:41;21.03;;;8.73;;
76063;SDS011;64762;52.006;8.424;2023-11-18T08:21:07;23.60;;;8.73;;
76063;SDS011;64762;52.006;8.424;2023-11-18T08:23:32;23.42;;;9.93;;
76063;SDS011;64762;52.006;8.424;2023-11-18T08:25:58;22.52;;;9.73;;
76063;SDS011;64762;52.006;8.424;2023-11-18T08:28:24;16.65;;;7.22;;
76063;SDS011;64762;52.006;8.424;2023-11-18T08:30:49;18.15;;;6.90;;
76063;SDS011;64762;52.006;8.424;2023-11-18T08:33:16;19.73;;;8.02;;
76063;SDS011;64762;52.006;8.424;2023-11-18T08:35:42;18.02;;;7.22;;
76063;SDS011;64762;52.006;8.424;2023-11-18T08:38:07;12.93;;;6.13;;
76063;SDS011;64762;52.006;8.424;2023-11-18T08:40:33;16.60;;;6.07;;
76063;SDS011;64762;52.006;8.424;2023-11-18T08:42:59;17.42;;;6.60;;
76063;SDS011;64762;52.006;8.424;2023-11-18T08:45:26;15.85;;;6.72;;
76063;SDS011;64762;52.006;8.424;2023-11-18T08:47:54;13.02;;;5.72;;
76063;SDS011;64762;52.006;8.424;2023-11-18T08:50:23;12.55;;;6.25;;
76063;SDS011;64762;52.006;8.424;2023-11-18T08:52:49;14.10;;;6.40;;
76063;SDS011;64762;52.006;8.424;2023-11-18T08:55:18;13.05;;;5.80;;
76063;SDS011;64762;52.006;8.424;2023-11-18T08:57:46;12.02;;;5.65;;
76063;SDS011;64762;52.006;8.424;2023-11-18T09:00:27;15.50;;;6.60;;
76063;SDS011;64762;52.006;8.424;2023-11-18T09:03:20;14.68;;;6.68;;
76063;SDS011;64762;52.006;8.424;2023-11-18T09:06:04;11.98;;;5.25;;
76063;SDS011;64762;52.006;8.424;2023-11-18T09:08:33;13.45;;;5.72;;
76063;SDS011;64762;52.006;8.424;2023-11-18T09:11:04;13.25;;;4.75;;
76063;SDS011;64762;52.006;8.424;2023-11-18T09:13:31;11.05;;;5.32;;
76063;SDS011;64762;52.006;8.424;2023-11-18T09:15:57;14.52;;;5.47;;
76063;SDS011;64762;52.006;8.424;2023-11-18T09:18:25;13.07;;;4.88;;
76063;SDS011;64762;52.006;8.424;2023-11-18T09:20:52;10.88;;;5.53;;
76063;SDS011;64762;52.006;8.424;2023-11-18T09:23:17;14.98;;;5.00;;
76063;SDS011;64762;52.006;8.424;2023-11-18T09:25:44;13.27;;;4.82;;
76063;SDS011;64762;52.006;8.424;2023-11-18T09:28:11;11.30;;;4.88;;
76063;SDS011;64762;52.006;8.424;2023-11-18T09:30:39;11.55;;;4.88;;
76063;SDS011;64762;52.006;8.424;2023-11-18T09:33:14;11.60;;;4.30;;
76063;SDS011;64762;52.006;8.424;2023-11-18T09:35:50;10.38;;;4.80;;
76063;SDS011;64762;52.006;8.424;2023-11-18T09:38:17;8.73;;;4.25;;
76063;SDS011;64762;52.006;8.424;2023-11-18T09:40:42;10.10;;;4.30;;
76063;SDS011;64762;52.006;8.424;2023-11-18T09:43:08;10.02;;;4.97;;
76063;SDS011;64762;52.006;8.424;2023-11-18T09:45:35;10.55;;;4.68;;
76063;SDS011;64762;52.006;8.424;2023-11-18T09:48:01;13.70;;;4.57;;
76063;SDS011;64762;52.006;8.424;2023-11-18T09:50:27;11.65;;;4.50;;
76063;SDS011;64762;52.006;8.424;2023-11-18T09:52:54;15.10;;;4.88;;
76063;SDS011;64762;52.006;8.424;2023-11-18T09:55:21;14.65;;;5.25;;
76063;SDS011;64762;52.006;8.424;2023-11-18T09:57:59;9.27;;;4.13;;
76063;SDS011;64762;52.006;8.424;2023-11-18T10:00:29;8.30;;;4.43;;
76063;SDS011;64762;52.006;8.424;2023-11-18T10:03:00;11.25;;;4.57;;
76063;SDS011;64762;52.006;8.424;2023-11-18T10:05:26;10.90;;;4.80;;
76063;SDS011;64762;52.006;8.424;2023-11-18T10:07:52;9.27;;;4.55;;
76063;SDS011;64762;52.006;8.424;2023-11-18T10:10:17;10.90;;;5.20;;
76063;SDS011;64762;52.006;8.424;2023-11-18T10:12:46;9.38;;;4.32;;
76063;SDS011;64762;52.006;8.424;2023-11-18T10:15:17;13.85;;;4.25;;
76063;SDS011;64762;52.006;8.424;2023-11-18T10:17:44;7.72;;;4.13;;
76063;SDS011;64762;52.006;8.424;2023-11-18T10:20:20;13.57;;;5.93;;
76063;SDS011;64762;52.006;8.424;2023-11-18T10:23:07;12.88;;;4.72;;
76063;SDS011;64762;52.006;8.424;2023-11-18T10:25:45;10.27;;;5.07;;
76063;SDS011;64762;52.006;8.424;2023-11-18T10:28:36;11.27;;;4.18;;
76063;SDS011;64762;52.006;8.424;2023-11-18T10:31:05;10.88;;;4.63;;
76063;SDS011;64762;52.006;8.424;2023-11-18T10:33:31;10.80;;;4.75;;
76063;SDS011;64762;52.006;8.424;2023-11-18T10:35:58;11.23;;;4.93;;
76063;SDS011;64762;52.006;8.424;2023-11-18T10:38:27;11.15;;;5.07;;
76063;SDS011;64762;52.006;8.424;2023-11-18T10:40:54;14.02;;;5.75;;
76063;SDS011;64762;52.006;8.424;2023-11-18T10:43:23;10.27;;;4.60;;
76063;SDS011;64762;52.006;8.424;2023-11-18T10:45:52;10.18;;;4.82;;
76063;SDS011;64762;52.006;8.424;2023-11-18T10:48:29;11.63;;;4.72;;
76063;SDS011;64762;52.006;8.424;2023-11-18T10:50:55;8.45;;;4.40;;
76063;SDS011;64762;52.006;8.424;2023-11-18T10:53:23;11.07;;;5.18;;
76063;SDS011;64762;52.006;8.424;2023-11-18T10:55:50;11.25;;;5.03;;
76063;SDS011;64762;52.006;8.424;2023-11-18T10:58:16;9.27;;;4.27;;
76063;SDS011;64762;52.006;8.424;2023-11-18T11:00:52;10.27;;;4.90;;
76063;SDS011;64762;52.006;8.424;2023-11-18T11:03:25;14.50;;;4.90;;
76063;SDS011;64762;52.006;8.424;2023-11-18T11:05:51;11.25;;;4.82;;
76063;SDS011;64762;52.006;8.424;2023-11-18T11:08:19;9.48;;;4.68;;
76063;SDS011;64762;52.006;8.424;2023-11-18T11:10:45;9.82;;;5.05;;
76063;SDS011;64762;52.006;8.424;2023-11-18T11:13:13;9.85;;;5.07;;
76063;SDS011;64762;52.006;8.424;2023-11-18T11:15:41;10.70;;;4.75;;
76063;SDS011;64762;52.006;8.424;2023-11-18T11:18:09;9.77;;;4.07;;
76063;SDS011;64762;52.006;8.424;2023-11-18T11:26:28;10.10;;;4.38;;
76063;SDS011;64762;52.006;8.424;2023-11-18T11:29:09;8.90;;;4.25;;
76063;SDS011;64762;52.006;8.424;2023-11-18T11:31:44;9.63;;;4.30;;
76063;SDS011;64762;52.006;8.424;2023-11-18T11:34:19;9.50;;;4.55;;
76063;SDS011;64762;52.006;8.424;2023-11-18T11:36:48;11.18;;;4.72;;
76063;SDS011;64762;52.006;8.424;2023-11-18T11:39:15;10.40;;;4.65;;
76063;SDS011;64762;52.006;8.424;2023-11-18T11:41:45;8.20;;;4.22;;
76063;SDS011;64762;52.006;8.424;2023-11-18T11:44:12;9.02;;;4.50;;
76063;SDS011;64762;52.006;8.424;2023-11-18T11:46:38;10.82;;;4.78;;
76063;SDS011;64762;52.006;8.424;2023-11-18T11:49:06;9.93;;;5.03;;
76063;SDS011;64762;52.006;8.424;2023-11-18T11:54:13;8.27;;;3.88;;
76063;SDS011;64762;52.006;8.424;2023-11-18T11:56:45;10.38;;;4.70;;
76063;SDS011;64762;52.006;8.424;2023-11-18T11:59:12;8.73;;;4.10;;
76063;SDS011;64762;52.006;8.424;2023-11-18T12:01:40;13.15;;;5.03;;
76063;SDS011;64762;52.006;8.424;2023-11-18T12:04:10;9.25;;;4.10;;
76063;SDS011;64762;52.006;8.424;2023-11-18T12:06:46;9.50;;;4.75;;
76063;SDS011;64762;52.006;8.424;2023-11-18T12:09:18;10.02;;;5.38;;
76063;SDS011;64762;52.006;8.424;2023-11-18T12:11:47;12.93;;;5.05;;
76063;SDS011;64762;52.006;8.424;2023-11-18T12:14:14;9.95;;;5.43;;
76063;SDS011;64762;52.006;8.424;2023-11-18T12:19:32;10.50;;;4.80;;
76063;SDS011;64762;52.006;8.424;2023-11-18T12:24:46;8.95;;;5.13;;
76063;SDS011;64762;52.006;8.424;2023-11-18T12:27:40;9.82;;;4.65;;
76063;SDS011;64762;52.006;8.424;2023-11-18T12:32:58;10.00;;;5.07;;
76063;SDS011;64762;52.006;8.424;2023-11-18T12:35:32;11.23;;;5.00;;
76063;SDS011;64762;52.006;8.424;2023-11-18T12:40:52;12.32;;;4.93;;
76063;SDS011;64762;52.006;8.424;2023-11-18T12:43:34;8.18;;;5.15;;
76063;SDS011;64762;52.006;8.424;2023-11-18T12:48:49;10.45;;;6.28;;
76063;SDS011;64762;52.006;8.424;2023-11-18T12:51:16;10.50;;;5.57;;
76063;SDS011;64762;52.006;8.424;2023-11-18T12:53:48;11.45;;;4.82;;
76063;SDS011;64762;52.006;8.424;2023-11-18T12:56:16;13.75;;;5.60;;
76063;SDS011;64762;52.006;8.424;2023-11-18T12:58:44;12.70;;;5.47;;
76063;SDS011;64762;52.006;8.424;2023-11-18T13:01:10;9.38;;;4.80;;
76063;SDS011;64762;52.006;8.424;2023-11-18T13:03:39;9.73;;;4.90;;
76063;SDS011;64762;52.006;8.424;2023-11-18T13:06:07;10.25;;;5.63;;
76063;SDS011;64762;52.006;8.424;2023-11-18T13:08:37;11.35;;;5.38;;
76063;SDS011;64762;52.006;8.424;2023-11-18T13:11:06;9.82;;;4.93;;
76063;SDS011;64762;52.006;8.424;2023-11-18T13:13:37;9.90;;;5.20;;
76063;SDS011;64762;52.006;8.424;2023-11-18T13:16:04;12.15;;;6.22;;
76063;SDS011;64762;52.006;8.424;2023-11-18T13:18:51;12.38;;;5.15;;
76063;SDS011;64762;52.006;8.424;2023-11-18T13:21:19;11.98;;;5.15;;
76063;SDS011;64762;52.006;8.424;2023-11-18T13:23:45;10.13;;;4.82;;
76063;SDS011;64762;52.006;8.424;2023-11-18T13:26:20;10.98;;;5.18;;
76063;SDS011;64762;52.006;8.424;2023-11-18T13:28:46;11.45;;;5.30;;
76063;SDS011;64762;52.006;8.424;2023-11-18T13:31:11;12.65;;;5.25;;
76063;SDS011;64762;52.006;8.424;2023-11-18T13:33:41;10.52;;;4.25;;
76063;SDS011;64762;52.006;8.424;2023-11-18T13:36:07;10.88;;;5.45;;
76063;SDS011;64762;52.006;8.424;2023-11-18T13:38:35;13.38;;;5.35;;
76063;SDS011;64762;52.006;8.424;2023-11-18T13:41:04;13.07;;;5.22;;
76063;SDS011;64762;52.006;8.424;2023-11-18T13:43:45;10.63;;;5.10;;
76063;SDS011;64762;52.006;8.424;2023-11-18T13:46:12;11.10;;;5.32;;
76063;SDS011;64762;52.006;8.424;2023-11-18T13:48:38;13.60;;;5.18;;
76063;SDS011;64762;52.006;8.424;2023-11-18T13:51:06;9.63;;;4.80;;
76063;SDS011;64762;52.006;8.424;2023-11-18T13:53:37;10.63;;;4.85;;
76063;SDS011;64762;52.006;8.424;2023-11-18T13:56:03;12.25;;;5.18;;
76063;SDS011;64762;52.006;8.424;2023-11-18T13:58:29;10.82;;;5.47;;
76063;SDS011;64762;52.006;8.424;2023-11-18T14:00:55;13.63;;;5.25;;
76063;SDS011;64762;52.006;8.424;2023-11-18T14:03:21;10.23;;;4.95;;
76063;SDS011;64762;52.006;8.424;2023-11-18T14:05:50;11.93;;;5.85;;
76063;SDS011;64762;52.006;8.424;2023-11-18T14:08:17;13.20;;;5.93;;
76063;SDS011;64762;52.006;8.424;2023-11-18T14:10:43;14.65;;;5.30;;
76063;SDS011;64762;52.006;8.424;2023-11-18T14:13:08;13.48;;;4.88;;
76063;SDS011;64762;52.006;8.424;2023-11-18T14:15:41;13.55;;;5.28;;
76063;SDS011;64762;52.006;8.424;2023-11-18T14:18:09;12.52;;;4.85;;
76063;SDS011;64762;52.006;8.424;2023-11-18T14:20:35;9.05;;;4.47;;
76063;SDS011;64762;52.006;8.424;2023-11-18T14:23:04;16.65;;;4.50;;
76063;SDS011;64762;52.006;8.424;2023-11-18T14:25:29;8.80;;;4.45;;
76063;SDS011;64762;52.006;8.424;2023-11-18T14:27:55;9.05;;;4.20;;
76063;SDS011;64762;52.006;8.424;2023-11-18T14:30:21;10.88;;;4.50;;
76063;SDS011;64762;52.006;8.424;2023-11-18T14:32:49;9.00;;;4.47;;
76063;SDS011;64762;52.006;8.424;2023-11-18T14:35:14;11.27;;;4.90;;
76063;SDS011;64762;52.006;8.424;2023-11-18T14:37:42;10.13;;;4.30;;
76063;SDS011;64762;52.006;8.424;2023-11-18T14:40:11;8.38;;;3.88;;
76063;SDS011;64762;52.006;8.424;2023-11-18T14:42:43;10.18;;;3.45;;
76063;SDS011;64762;52.006;8.424;2023-11-18T14:45:10;9.90;;;4.43;;
76063;SDS011;64762;52.006;8.424;2023-11-18T14:47:37;7.60;;;3.50;;
76063;SDS011;64762;52.006;8.424;2023-11-18T14:50:02;10.80;;;3.70;;
76063;SDS011;64762;52.006;8.424;2023-11-18T14:52:30;8.02;;;3.95;;
76063;SDS011;64762;52.006;8.424;2023-11-18T14:54:55;6.57;;;3.30;;
76063;SDS011;64762;52.006;8.424;2023-11-18T14:57:21;7.60;;;4.00;;
76063;SDS011;64762;52.006;8.424;2023-11-18T14:59:46;10.65;;;4.32;;